Flight Track Log - Related Links

Times and Time Zones

All times are in EDT time to prevent confusion due to time zone crossing. See the ASQ3843 flight status page for this flight to view local times or setup timezone preferences in your user account.

Time Position Orientation Groundspeed Altitude Reporting Facility
EDT Latitude Longitude Course Direction KTS MPH feet Rate Location/Type
Fri 02:47:02 PM 35.3553 -97.6047 176° South 163 188 3,000  Level Fort Worth Center
Fri 02:48:03 PM 35.2958 -97.5997 176° South 229 264 3,700 811 Climbing Fort Worth Center
Fri 02:48:16 PM 35.2825 -97.5981 174° South 230 265 4,000 2,066 Climbing Fort Worth Center
Fri 02:49:04 PM 35.2228 -97.5889 173° South 260 299 5,800 2,129 Climbing Fort Worth Center
Fri 02:49:18 PM 35.2078 -97.5878 177° South 246 283 6,200 1,869 Climbing Fort Worth Center
Fri 02:50:05 PM 35.1525 -97.5806 174° South 258 297 7,700 1,839 Climbing Fort Worth Center
Fri 02:50:20 PM 35.1361 -97.5778 172° South 255 293 8,100 1,792 Climbing Fort Worth Center
Fri 02:51:22 PM 35.0697 -97.5686 174° South 257 296 10,000 1,645 Climbing Fort Worth Center
Fri 02:52:24 PM 34.9839 -97.5572 174° South 269 310 11,500 1,258 Climbing Fort Worth Center
Fri 02:53:26 PM 34.9033 -97.5333 166° South 305 351 12,600 1,113 Climbing Fort Worth Center
Fri 02:54:28 PM 34.8231 -97.4917 157° South 316 364 13,800 1,104 Climbing Fort Worth Center
Fri 02:55:31 PM 34.7386 -97.4461 156° South 329 379 14,900 1,104 Climbing Fort Worth Center
Fri 02:56:33 PM 34.6511 -97.4017 157° South 340 391 16,100 1,210 Climbing Fort Worth Center
Fri 02:57:35 PM 34.5444 -97.3444 156° South 346 398 17,400 1,161 Climbing Fort Worth Center
Fri 02:58:37 PM 34.4542 -97.2981 157° South 349 402 18,500 1,065 Climbing Fort Worth Center
Fri 02:59:39 PM 34.3628 -97.2492 156° South 356 410 19,600 726 Climbing Fort Worth Center
Fri 03:00:41 PM 34.2697 -97.1983 156° South 363 418 20,000 194 Climbing Fort Worth Center
Fri 03:01:43 PM 34.1650 -97.1592 163° South 394 453 20,000 384 Level Fort Worth Center
Fri 03:02:46 PM 34.0503 -97.1353 170° South 407 468 20,800 1,056 Climbing Fort Worth Center
Fri 03:03:48 PM 33.9200 -97.1086 170° South 399 459 22,200 1,306 Climbing Fort Worth Center
Fri 03:04:50 PM 33.8164 -97.0664 161° South 390 449 23,500 1,210 Climbing Fort Worth Center
Fri 03:05:52 PM 33.7214 -97.0219 159° South 379 436 24,700 1,161 Climbing Fort Worth Center
Fri 03:06:54 PM 33.6242 -96.9858 163° South 371 427 25,900 1,161 Climbing Fort Worth Center
Fri 03:07:56 PM 33.5236 -96.9764 176° South 366 421 27,100 1,152 Climbing Fort Worth Center
Fri 03:08:59 PM 33.4261 -96.9650 174° South 356 410 28,300 912 Climbing Fort Worth Center
Fri 03:10:01 PM 33.3072 -96.9517 175° South 357 411 29,000 339 Climbing Fort Worth Center
Fri 03:11:03 PM 33.1997 -96.9386 174° South 382 440 29,000  Level Fort Worth Center
Fri 03:12:05 PM 33.0858 -96.9258 175° South 405 466 29,000  Level Fort Worth Center
Fri 03:13:07 PM 32.9678 -96.9122 174° South 416 479 29,000  Level Fort Worth Center
Fri 03:14:09 PM 32.8450 -96.8900 171° South 436 502 29,000 -48 Level Fort Worth Center
Fri 03:15:11 PM 32.7250 -96.8561 167° South 436 502 28,900  Descending Fort Worth Center
Fri 03:16:14 PM 32.6033 -96.8211 166° South 443 510 29,000 48 Climbing Fort Worth Center
Fri 03:17:16 PM 32.4806 -96.7864 167° South 446 513 29,000  Level Fort Worth Center
Fri 03:18:18 PM 32.3322 -96.7444 167° South 450 518 29,000  Level Fort Worth Center
Fri 03:19:20 PM 32.2086 -96.7086 166° South 453 521 29,000  Level Fort Worth Center
Fri 03:20:22 PM 32.0839 -96.6739 167° South 454 522 29,000  Level Fort Worth Center
Fri 03:21:24 PM 31.9617 -96.6386 166° South 455 524 29,000  Level Fort Worth Center
Fri 03:22:26 PM 31.8369 -96.6028 166° South 458 527 29,000  Level Fort Worth Center
Fri 03:23:29 PM 31.7133 -96.5686 167° South 458 527 29,000  Level Fort Worth Center
Fri 03:24:31 PM 31.5647 -96.5275 167° South 457 526 29,000  Level Fort Worth Center
Fri 03:25:33 PM 31.4389 -96.5053 171° South 459 528 29,000  Level Fort Worth Center
Fri 03:26:35 PM 31.3139 -96.5211 186° South 453 521 29,000 -387 Level Fort Worth Center
Fri 03:27:37 PM 31.1956 -96.4753 162° South 458 527 28,200 -1,645 Descending Fort Worth Center
Fri 03:28:39 PM 31.1000 -96.3914 143° Southeast 446 513 25,600 -2,565 Descending Fort Worth Center
Fri 03:29:41 PM 31.0075 -96.3106 143° Southeast 425 489 22,900 -2,592 Descending Fort Worth Center
Fri 03:30:44 PM 30.8994 -96.2183 144° Southeast 403 464 20,200 -2,208 Descending Fort Worth Center
Fri 03:31:46 PM 30.8150 -96.1453 143° Southeast 383 441 18,300 -1,742 Descending Fort Worth Center
Fri 03:32:48 PM 30.7367 -96.0772 143° Southeast 358 412 16,600 -1,742 Descending Fort Worth Center
Fri 03:33:50 PM 30.6556 -96.0108 145° Southeast 356 410 14,700 -1,790 Descending Fort Worth Center
Fri 03:34:52 PM 30.5719 -95.9406 144° Southeast 364 419 12,900 -1,597 Descending Fort Worth Center
Fri 03:35:54 PM 30.4911 -95.8764 146° Southeast 362 417 11,400 -1,632 Descending Fort Worth Center
Fri 03:36:57 PM 30.3964 -95.8611 172° South 296 341 9,500 -1,824 Descending Fort Worth Center
Fri 03:37:59 PM 30.3189 -95.8400 167° South 289 333 7,600 -1,500 Descending Fort Worth Center
Fri 03:39:01 PM 30.2486 -95.8119 161° South 274 315 6,400 -1,161 Descending Fort Worth Center
Fri 03:40:03 PM 30.1836 -95.7861 161° South 255 293 5,200 -1,065 Descending Fort Worth Center
Fri 03:41:05 PM 30.1175 -95.7525 156° South 255 293 4,200 -960 Descending Fort Worth Center
Fri 03:42:08 PM 30.0772 -95.6700 119° Southeast 257 296 3,200 -759 Descending Houston Center
Fri 03:42:32 PM 30.0689 -95.6469 113° Southeast 249 287 3,100 -90 Descending Houston Center
Fri 03:43:15 PM 30.0447 -95.5869 115° Southeast 248 285 3,100  Level Houston Center
Fri 03:43:34 PM 30.0403 -95.5750 113° Southeast 249 287 3,100 -88 Level Houston Center
Fri 03:44:23 PM 30.0136 -95.5206 119° Southeast 202 232 3,000 -190 Descending Houston Center
Fri 03:44:37 PM 30.0122 -95.5142 104° East 233 268 2,900 -960 Descending Houston Center
Fri 03:45:13 PM 30.0064 -95.4661 98° East 215 247 2,200 -968 Descending Houston Center
Fri 03:45:39 PM 30.0058 -95.4497 92° East 215 247 1,900 -1,279 Descending Houston Center
Fri 03:46:14 PM 30.0075 -95.4081 87° East 156 180 900 -1,258 Descending Houston Center
Fri 03:46:41 PM 30.0072 -95.3856 91° East 182 209 600 -337 Descending Houston Center
Fri 03:47:43 PM 30.0058 -95.3406 92° East 174 200 400 -194 Descending Houston Center

Login

Don't have an account? Register now (free) for customized features, flight alerts, and more!